sensor_id;sensor_type;location;lat;lon;timestamp;pressure;altitude;pressure_sealevel;temperature;humidity
77410;BME280;66481;51.332;22.804;2023-02-26T00:02:50;98002.84;;;1.55;90.96
77410;BME280;66481;51.332;22.804;2023-02-26T00:06:53;98006.38;;;1.54;90.57
77410;BME280;66481;51.332;22.804;2023-02-26T00:10:58;98018.50;;;1.55;90.55
77410;BME280;66481;51.332;22.804;2023-02-26T00:15:04;98019.94;;;1.59;90.51
77410;BME280;66481;51.332;22.804;2023-02-26T00:19:06;98019.59;;;1.50;90.62
77410;BME280;66481;51.332;22.804;2023-02-26T00:23:11;98034.19;;;1.40;90.63
77410;BME280;66481;51.332;22.804;2023-02-26T00:27:15;98023.25;;;1.48;90.26
77410;BME280;66481;51.332;22.804;2023-02-26T00:31:17;98036.91;;;1.52;90.29
77410;BME280;66481;51.332;22.804;2023-02-26T00:35:20;98047.09;;;1.42;90.74
77410;BME280;66481;51.332;22.804;2023-02-26T00:43:34;98061.94;;;1.27;91.01
77410;BME280;66481;51.332;22.804;2023-02-26T00:51:57;98067.50;;;1.35;90.77
77410;BME280;66481;51.332;22.804;2023-02-26T00:55:59;98076.25;;;1.34;90.91
77410;BME280;66481;51.332;22.804;2023-02-26T01:00:04;98074.97;;;1.27;90.78
77410;BME280;66481;51.332;22.804;2023-02-26T01:04:08;98086.03;;;1.30;91.05
77410;BME280;66481;51.332;22.804;2023-02-26T01:12:29;98091.50;;;1.26;89.94
77410;BME280;66481;51.332;22.804;2023-02-26T01:16:34;98097.97;;;1.06;90.68
77410;BME280;66481;51.332;22.804;2023-02-26T01:21:02;98103.44;;;1.01;91.77
77410;BME280;66481;51.332;22.804;2023-02-26T01:25:08;98111.44;;;0.84;91.42
77410;BME280;66481;51.332;22.804;2023-02-26T01:29:09;98130.34;;;0.57;91.61
77410;BME280;66481;51.332;22.804;2023-02-26T01:33:20;98135.31;;;0.31;92.83
77410;BME280;66481;51.332;22.804;2023-02-26T01:37:32;98144.13;;;0.29;92.68
77410;BME280;66481;51.332;22.804;2023-02-26T01:41:37;98147.47;;;0.31;93.15
77410;BME280;66481;51.332;22.804;2023-02-26T01:45:56;98160.56;;;0.45;92.72
77410;BME280;66481;51.332;22.804;2023-02-26T01:50:13;98165.38;;;0.51;92.21
77410;BME280;66481;51.332;22.804;2023-02-26T01:54:17;98170.41;;;0.54;92.29
77410;BME280;66481;51.332;22.804;2023-02-26T01:58:20;98180.81;;;0.54;91.82
77410;BME280;66481;51.332;22.804;2023-02-26T02:02:23;98182.78;;;0.51;91.26
77410;BME280;66481;51.332;22.804;2023-02-26T02:06:26;98195.03;;;0.49;90.82
77410;BME280;66481;51.332;22.804;2023-02-26T02:10:29;98212.06;;;0.54;90.91
77410;BME280;66481;51.332;22.804;2023-02-26T02:18:46;98223.47;;;0.52;90.29
77410;BME280;66481;51.332;22.804;2023-02-26T02:22:58;98232.97;;;0.53;90.29
77410;BME280;66481;51.332;22.804;2023-02-26T02:31:27;98235.56;;;0.53;89.71
77410;BME280;66481;51.332;22.804;2023-02-26T02:35:36;98249.59;;;0.50;89.39
77410;BME280;66481;51.332;22.804;2023-02-26T02:43:49;98274.00;;;0.48;88.54
77410;BME280;66481;51.332;22.804;2023-02-26T02:47:56;98274.53;;;0.39;89.11
77410;BME280;66481;51.332;22.804;2023-02-26T02:52:04;98284.09;;;0.38;89.40
77410;BME280;66481;51.332;22.804;2023-02-26T02:56:20;98279.06;;;0.35;89.21
77410;BME280;66481;51.332;22.804;2023-02-26T03:00:24;98283.34;;;0.20;90.18
77410;BME280;66481;51.332;22.804;2023-02-26T03:04:27;98308.84;;;0.13;90.95
77410;BME280;66481;51.332;22.804;2023-02-26T03:08:33;98304.38;;;-0.01;92.65
77410;BME280;66481;51.332;22.804;2023-02-26T03:12:34;98311.66;;;-0.07;92.84
77410;BME280;66481;51.332;22.804;2023-02-26T03:16:48;98320.31;;;-0.07;92.00
77410;BME280;66481;51.332;22.804;2023-02-26T03:21:06;98329.03;;;-0.08;91.60
77410;BME280;66481;51.332;22.804;2023-02-26T03:30:02;98337.34;;;-0.01;90.56
77410;BME280;66481;51.332;22.804;2023-02-26T03:38:48;98344.31;;;-0.02;91.01
77410;BME280;66481;51.332;22.804;2023-02-26T03:43:19;98351.59;;;-0.08;91.33
77410;BME280;66481;51.332;22.804;2023-02-26T03:47:22;98355.72;;;-0.04;91.06
77410;BME280;66481;51.332;22.804;2023-02-26T03:51:24;98361.84;;;-0.05;91.07
77410;BME280;66481;51.332;22.804;2023-02-26T03:55:37;98372.84;;;0.00;90.98
77410;BME280;66481;51.332;22.804;2023-02-26T03:59:40;98380.66;;;0.00;90.67
77410;BME280;66481;51.332;22.804;2023-02-26T04:03:54;98389.81;;;0.07;90.38
77410;BME280;66481;51.332;22.804;2023-02-26T04:07:57;98399.25;;;0.08;89.61
77410;BME280;66481;51.332;22.804;2023-02-26T04:11:58;98404.81;;;0.02;89.63
77410;BME280;66481;51.332;22.804;2023-02-26T04:15:59;98409.63;;;-0.08;90.66
77410;BME280;66481;51.332;22.804;2023-02-26T04:20:00;98416.06;;;-0.15;90.73
77410;BME280;66481;51.332;22.804;2023-02-26T04:24:01;98425.84;;;-0.20;90.56
77410;BME280;66481;51.332;22.804;2023-02-26T04:28:02;98437.47;;;-0.10;89.66
77410;BME280;66481;51.332;22.804;2023-02-26T04:32:03;98437.00;;;-0.18;90.25
77410;BME280;66481;51.332;22.804;2023-02-26T04:36:04;98449.19;;;-0.18;90.19
77410;BME280;66481;51.332;22.804;2023-02-26T04:40:06;98455.28;;;-0.20;89.08
77410;BME280;66481;51.332;22.804;2023-02-26T04:44:08;98466.06;;;-0.27;89.28
77410;BME280;66481;51.332;22.804;2023-02-26T04:48:09;98463.69;;;-0.32;89.21
77410;BME280;66481;51.332;22.804;2023-02-26T04:52:10;98462.19;;;-0.36;89.16
77410;BME280;66481;51.332;22.804;2023-02-26T04:56:11;98472.84;;;-0.42;89.03
77410;BME280;66481;51.332;22.804;2023-02-26T05:00:13;98475.03;;;-0.33;89.03
77410;BME280;66481;51.332;22.804;2023-02-26T05:04:15;98484.81;;;-0.38;89.58
77410;BME280;66481;51.332;22.804;2023-02-26T05:08:16;98501.00;;;-0.33;89.39
77410;BME280;66481;51.332;22.804;2023-02-26T05:12:17;98519.91;;;-0.29;89.14
77410;BME280;66481;51.332;22.804;2023-02-26T05:16:18;98529.94;;;-0.41;88.85
77410;BME280;66481;51.332;22.804;2023-02-26T05:20:19;98526.66;;;-0.44;88.55
77410;BME280;66481;51.332;22.804;2023-02-26T05:24:20;98525.75;;;-0.43;88.49
77410;BME280;66481;51.332;22.804;2023-02-26T05:28:22;98533.38;;;-0.40;88.34
77410;BME280;66481;51.332;22.804;2023-02-26T05:32:24;98549.91;;;-0.41;88.41
77410;BME280;66481;51.332;22.804;2023-02-26T05:36:25;98551.81;;;-0.45;88.20
77410;BME280;66481;51.332;22.804;2023-02-26T05:40:26;98545.22;;;-0.52;89.51
77410;BME280;66481;51.332;22.804;2023-02-26T05:44:27;98546.28;;;-0.56;90.08
77410;BME280;66481;51.332;22.804;2023-02-26T05:48:28;98560.41;;;-0.62;89.04
77410;BME280;66481;51.332;22.804;2023-02-26T05:52:29;98569.97;;;-0.62;89.53
77410;BME280;66481;51.332;22.804;2023-02-26T05:56:30;98592.41;;;-0.61;88.87
77410;BME280;66481;51.332;22.804;2023-02-26T06:00:32;98598.66;;;-0.65;88.04
77410;BME280;66481;51.332;22.804;2023-02-26T06:04:33;98609.25;;;-0.70;87.94
77410;BME280;66481;51.332;22.804;2023-02-26T06:08:34;98623.25;;;-0.72;88.24
77410;BME280;66481;51.332;22.804;2023-02-26T06:12:36;98638.88;;;-0.74;88.48
77410;BME280;66481;51.332;22.804;2023-02-26T06:16:37;98665.41;;;-0.86;89.00
77410;BME280;66481;51.332;22.804;2023-02-26T06:20:38;98664.53;;;-0.87;89.23
77410;BME280;66481;51.332;22.804;2023-02-26T06:24:39;98693.16;;;-0.88;89.22
77410;BME280;66481;51.332;22.804;2023-02-26T06:39:23;98700.66;;;-0.81;90.30
77410;BME280;66481;51.332;22.804;2023-02-26T06:43:24;98711.88;;;-0.80;89.46
77410;BME280;66481;51.332;22.804;2023-02-26T06:47:25;98721.22;;;-0.76;90.21
77410;BME280;66481;51.332;22.804;2023-02-26T06:51:26;98726.22;;;-0.71;89.08
77410;BME280;66481;51.332;22.804;2023-02-26T06:55:28;98725.13;;;-0.66;89.17
77410;BME280;66481;51.332;22.804;2023-02-26T06:59:29;98728.31;;;-0.61;89.25
77410;BME280;66481;51.332;22.804;2023-02-26T07:03:30;98737.03;;;-0.62;88.49
77410;BME280;66481;51.332;22.804;2023-02-26T07:07:31;98749.59;;;-0.71;89.46
77410;BME280;66481;51.332;22.804;2023-02-26T07:11:32;98761.66;;;-0.70;89.42
77410;BME280;66481;51.332;22.804;2023-02-26T07:15:34;98765.22;;;-0.73;89.24
77410;BME280;66481;51.332;22.804;2023-02-26T07:19:35;98764.03;;;-0.85;89.39
77410;BME280;66481;51.332;22.804;2023-02-26T07:23:36;98774.91;;;-0.77;90.08
77410;BME280;66481;51.332;22.804;2023-02-26T07:27:38;98783.41;;;-0.73;90.16
77410;BME280;66481;51.332;22.804;2023-02-26T07:31:40;98782.44;;;-0.91;89.17
77410;BME280;66481;51.332;22.804;2023-02-26T07:35:41;98798.22;;;-0.96;90.07
77410;BME280;66481;51.332;22.804;2023-02-26T07:39:42;98800.38;;;-1.05;89.86
77410;BME280;66481;51.332;22.804;2023-02-26T07:43:43;98814.25;;;-1.06;90.53
77410;BME280;66481;51.332;22.804;2023-02-26T07:47:44;98822.56;;;-0.98;90.38
77410;BME280;66481;51.332;22.804;2023-02-26T07:51:46;98831.50;;;-1.05;90.31
77410;BME280;66481;51.332;22.804;2023-02-26T07:55:48;98836.72;;;-1.05;90.29
77410;BME280;66481;51.332;22.804;2023-02-26T07:59:49;98843.69;;;-1.07;90.98
77410;BME280;66481;51.332;22.804;2023-02-26T08:03:50;98851.31;;;-1.03;89.94
77410;BME280;66481;51.332;22.804;2023-02-26T08:07:53;98864.03;;;-0.97;90.64
77410;BME280;66481;51.332;22.804;2023-02-26T08:11:54;98862.66;;;-1.05;89.89
77410;BME280;66481;51.332;22.804;2023-02-26T08:15:57;98863.28;;;-0.99;89.14
77410;BME280;66481;51.332;22.804;2023-02-26T08:19:58;98869.41;;;-1.01;90.50
77410;BME280;66481;51.332;22.804;2023-02-26T08:24:00;98871.19;;;-1.02;90.33
77410;BME280;66481;51.332;22.804;2023-02-26T08:28:02;98881.34;;;-0.97;89.45
77410;BME280;66481;51.332;22.804;2023-02-26T08:32:04;98890.25;;;-1.03;89.09
77410;BME280;66481;51.332;22.804;2023-02-26T08:36:06;98885.94;;;-0.82;89.21
77410;BME280;66481;51.332;22.804;2023-02-26T08:40:08;98892.72;;;-0.78;89.07
77410;BME280;66481;51.332;22.804;2023-02-26T08:44:10;98902.28;;;-0.80;87.88
77410;BME280;66481;51.332;22.804;2023-02-26T08:48:12;98908.50;;;-0.62;87.20
77410;BME280;66481;51.332;22.804;2023-02-26T08:52:13;98919.41;;;-0.74;86.91
77410;BME280;66481;51.332;22.804;2023-02-26T08:56:16;98930.19;;;-0.63;86.90
77410;BME280;66481;51.332;22.804;2023-02-26T09:00:18;98942.06;;;-0.78;87.85
77410;BME280;66481;51.332;22.804;2023-02-26T09:04:20;98950.63;;;-0.98;86.22
77410;BME280;66481;51.332;22.804;2023-02-26T09:08:22;98961.59;;;-1.13;86.09
77410;BME280;66481;51.332;22.804;2023-02-26T09:12:26;98968.22;;;-1.28;86.80
77410;BME280;66481;51.332;22.804;2023-02-26T09:16:29;98978.38;;;-1.22;87.08
77410;BME280;66481;51.332;22.804;2023-02-26T09:20:31;98981.69;;;-1.18;85.02
77410;BME280;66481;51.332;22.804;2023-02-26T09:24:33;98988.53;;;-1.16;84.14
77410;BME280;66481;51.332;22.804;2023-02-26T09:28:38;98992.84;;;-1.16;82.37
77410;BME280;66481;51.332;22.804;2023-02-26T09:32:43;99000.13;;;-1.02;82.39
77410;BME280;66481;51.332;22.804;2023-02-26T09:36:46;98992.47;;;-1.05;80.92
77410;BME280;66481;51.332;22.804;2023-02-26T09:41:05;99013.72;;;-0.96;80.22
77410;BME280;66481;51.332;22.804;2023-02-26T09:45:29;99021.97;;;-0.84;80.57
77410;BME280;66481;51.332;22.804;2023-02-26T09:53:48;99036.34;;;-0.76;78.79
77410;BME280;66481;51.332;22.804;2023-02-26T09:57:51;99049.84;;;-0.66;78.57
77410;BME280;66481;51.332;22.804;2023-02-26T10:02:15;99044.81;;;-0.48;77.10
77410;BME280;66481;51.332;22.804;2023-02-26T10:06:35;99064.63;;;-0.46;77.27
77410;BME280;66481;51.332;22.804;2023-02-26T10:11:03;99070.38;;;-0.60;76.43
77410;BME280;66481;51.332;22.804;2023-02-26T10:15:12;99087.28;;;-0.49;76.02
77410;BME280;66481;51.332;22.804;2023-02-26T10:19:19;99080.84;;;-0.39;77.04
77410;BME280;66481;51.332;22.804;2023-02-26T10:23:46;99091.84;;;-0.32;75.20
77410;BME280;66481;51.332;22.804;2023-02-26T10:32:37;99113.13;;;-0.45;74.78
77410;BME280;66481;51.332;22.804;2023-02-26T10:37:02;99129.06;;;-0.32;76.32
77410;BME280;66481;51.332;22.804;2023-02-26T10:41:11;99135.09;;;-0.53;76.17
77410;BME280;66481;51.332;22.804;2023-02-26T10:49:58;99149.78;;;-0.76;76.19
77410;BME280;66481;51.332;22.804;2023-02-26T10:54:35;99154.75;;;-0.70;78.11
77410;BME280;66481;51.332;22.804;2023-02-26T10:58:38;99154.69;;;-0.68;77.19
77410;BME280;66481;51.332;22.804;2023-02-26T11:02:45;99163.78;;;-0.33;77.11
77410;BME280;66481;51.332;22.804;2023-02-26T11:06:51;99157.84;;;-0.14;74.64
77410;BME280;66481;51.332;22.804;2023-02-26T11:11:02;99163.19;;;0.05;70.69
77410;BME280;66481;51.332;22.804;2023-02-26T11:15:15;99176.25;;;0.03;71.57
77410;BME280;66481;51.332;22.804;2023-02-26T11:19:30;99191.78;;;-0.17;70.59
77410;BME280;66481;51.332;22.804;2023-02-26T11:23:34;99203.00;;;-0.39;71.02
77410;BME280;66481;51.332;22.804;2023-02-26T11:27:39;99208.47;;;-0.23;72.40
77410;BME280;66481;51.332;22.804;2023-02-26T11:31:49;99227.13;;;-0.35;72.04
77410;BME280;66481;51.332;22.804;2023-02-26T11:35:51;99227.53;;;-0.46;70.25
77410;BME280;66481;51.332;22.804;2023-02-26T11:40:03;99242.44;;;-0.51;73.18
77410;BME280;66481;51.332;22.804;2023-02-26T11:44:39;99242.09;;;-0.42;73.05
77410;BME280;66481;51.332;22.804;2023-02-26T11:48:46;99236.78;;;-0.39;72.61
77410;BME280;66481;51.332;22.804;2023-02-26T11:53:33;99245.72;;;-0.46;72.67
77410;BME280;66481;51.332;22.804;2023-02-26T11:57:41;99246.41;;;-0.41;71.54
77410;BME280;66481;51.332;22.804;2023-02-26T12:01:43;99250.16;;;-0.26;73.02
77410;BME280;66481;51.332;22.804;2023-02-26T12:05:45;99256.28;;;-0.27;71.90
77410;BME280;66481;51.332;22.804;2023-02-26T12:09:47;99263.47;;;-0.34;73.45
77410;BME280;66481;51.332;22.804;2023-02-26T12:18:38;99274.88;;;-0.38;72.81
77410;BME280;66481;51.332;22.804;2023-02-26T12:27:16;99281.91;;;-0.42;73.06
77410;BME280;66481;51.332;22.804;2023-02-26T12:31:36;99282.59;;;-0.60;74.26
77410;BME280;66481;51.332;22.804;2023-02-26T12:36:07;99283.53;;;-0.63;74.87
77410;BME280;66481;51.332;22.804;2023-02-26T13:10:48;99346.53;;;-0.56;77.23
77410;BME280;66481;51.332;22.804;2023-02-26T13:23:22;99357.13;;;-0.62;76.90
77410;BME280;66481;51.332;22.804;2023-02-26T13:27:30;99361.69;;;-0.69;78.18
77410;BME280;66481;51.332;22.804;2023-02-26T13:35:39;99347.91;;;-0.71;78.66
77410;BME280;66481;51.332;22.804;2023-02-26T13:52:55;99368.16;;;-0.55;77.35
77410;BME280;66481;51.332;22.804;2023-02-26T13:57:33;99374.91;;;-0.50;77.52
77410;BME280;66481;51.332;22.804;2023-02-26T14:01:49;99365.13;;;-0.68;77.49
77410;BME280;66481;51.332;22.804;2023-02-26T14:11:01;99400.56;;;-0.66;76.58
77410;BME280;66481;51.332;22.804;2023-02-26T14:19:30;99421.41;;;-0.67;76.95
77410;BME280;66481;51.332;22.804;2023-02-26T14:23:35;99432.50;;;-0.62;77.45
77410;BME280;66481;51.332;22.804;2023-02-26T14:27:41;99433.56;;;-0.69;75.23
77410;BME280;66481;51.332;22.804;2023-02-26T14:35:49;99440.88;;;-0.81;75.50
77410;BME280;66481;51.332;22.804;2023-02-26T14:39:55;99446.25;;;-0.87;74.32
77410;BME280;66481;51.332;22.804;2023-02-26T14:44:01;99455.84;;;-0.89;75.04
77410;BME280;66481;51.332;22.804;2023-02-26T14:48:11;99465.47;;;-0.92;75.34
77410;BME280;66481;51.332;22.804;2023-02-26T14:52:48;99469.06;;;-0.97;74.79
77410;BME280;66481;51.332;22.804;2023-02-26T14:57:02;99489.25;;;-1.06;72.97
77410;BME280;66481;51.332;22.804;2023-02-26T15:01:24;99482.22;;;-1.03;74.98
77410;BME280;66481;51.332;22.804;2023-02-26T15:05:55;99485.16;;;-1.14;75.56
77410;BME280;66481;51.332;22.804;2023-02-26T15:27:16;99531.44;;;-1.28;75.04
77410;BME280;66481;51.332;22.804;2023-02-26T15:31:20;99530.50;;;-1.27;76.27
77410;BME280;66481;51.332;22.804;2023-02-26T15:35:21;99550.44;;;-1.27;76.41
77410;BME280;66481;51.332;22.804;2023-02-26T15:39:26;99552.56;;;-1.42;76.22
77410;BME280;66481;51.332;22.804;2023-02-26T15:43:27;99562.16;;;-1.45;76.55
77410;BME280;66481;51.332;22.804;2023-02-26T15:47:29;99568.22;;;-1.45;76.72
77410;BME280;66481;51.332;22.804;2023-02-26T15:51:31;99587.31;;;-1.47;77.46
77410;BME280;66481;51.332;22.804;2023-02-26T15:55:39;99586.53;;;-1.51;78.35
77410;BME280;66481;51.332;22.804;2023-02-26T15:59:49;99590.63;;;-1.42;78.64
77410;BME280;66481;51.332;22.804;2023-02-26T16:03:56;99582.06;;;-1.46;79.13
77410;BME280;66481;51.332;22.804;2023-02-26T16:07:57;99581.53;;;-1.57;80.04
77410;BME280;66481;51.332;22.804;2023-02-26T16:12:03;99596.31;;;-1.61;79.77
77410;BME280;66481;51.332;22.804;2023-02-26T16:16:21;99604.97;;;-1.62;80.42
77410;BME280;66481;51.332;22.804;2023-02-26T16:20:26;99601.34;;;-1.55;81.46
77410;BME280;66481;51.332;22.804;2023-02-26T16:24:29;99600.09;;;-1.74;82.53
77410;BME280;66481;51.332;22.804;2023-02-26T16:28:36;99608.72;;;-1.74;83.32
77410;BME280;66481;51.332;22.804;2023-02-26T16:32:46;99625.31;;;-1.79;84.14
77410;BME280;66481;51.332;22.804;2023-02-26T16:36:49;99621.13;;;-1.85;84.18
77410;BME280;66481;51.332;22.804;2023-02-26T16:41:09;99624.53;;;-1.83;83.07
77410;BME280;66481;51.332;22.804;2023-02-26T16:49:33;99636.66;;;-1.83;81.21
77410;BME280;66481;51.332;22.804;2023-02-26T16:53:43;99638.53;;;-1.90;82.45
77410;BME280;66481;51.332;22.804;2023-02-26T16:57:48;99646.28;;;-1.88;82.88
77410;BME280;66481;51.332;22.804;2023-02-26T17:06:01;99662.75;;;-1.91;83.81
77410;BME280;66481;51.332;22.804;2023-02-26T17:10:20;99672.28;;;-1.92;84.35
77410;BME280;66481;51.332;22.804;2023-02-26T17:14:26;99681.00;;;-1.96;83.30
77410;BME280;66481;51.332;22.804;2023-02-26T17:18:29;99686.13;;;-1.93;83.22
77410;BME280;66481;51.332;22.804;2023-02-26T17:22:31;99693.00;;;-1.90;82.99
77410;BME280;66481;51.332;22.804;2023-02-26T17:26:33;99699.03;;;-1.90;83.04
77410;BME280;66481;51.332;22.804;2023-02-26T17:35:51;99704.22;;;-1.90;84.05
77410;BME280;66481;51.332;22.804;2023-02-26T17:39:57;99706.69;;;-1.83;84.18
77410;BME280;66481;51.332;22.804;2023-02-26T17:44:00;99713.56;;;-1.82;83.66
77410;BME280;66481;51.332;22.804;2023-02-26T17:48:04;99720.50;;;-1.83;84.58
77410;BME280;66481;51.332;22.804;2023-02-26T17:52:05;99718.47;;;-1.72;84.01
77410;BME280;66481;51.332;22.804;2023-02-26T17:56:23;99721.03;;;-1.70;83.23
77410;BME280;66481;51.332;22.804;2023-02-26T18:00:27;99721.28;;;-1.81;83.34
77410;BME280;66481;51.332;22.804;2023-02-26T18:04:29;99722.06;;;-1.77;83.20
77410;BME280;66481;51.332;22.804;2023-02-26T18:08:32;99720.19;;;-1.71;82.36
77410;BME280;66481;51.332;22.804;2023-02-26T18:12:39;99727.78;;;-1.63;81.94
77410;BME280;66481;51.332;22.804;2023-02-26T18:16:42;99727.09;;;-1.69;81.08
77410;BME280;66481;51.332;22.804;2023-02-26T18:20:46;99740.84;;;-1.66;81.04
77410;BME280;66481;51.332;22.804;2023-02-26T18:24:48;99742.50;;;-1.63;81.04
77410;BME280;66481;51.332;22.804;2023-02-26T18:28:50;99746.94;;;-1.68;80.85
77410;BME280;66481;51.332;22.804;2023-02-26T18:32:53;99747.94;;;-1.74;81.79
77410;BME280;66481;51.332;22.804;2023-02-26T18:36:54;99750.56;;;-1.76;80.77
77410;BME280;66481;51.332;22.804;2023-02-26T18:40:57;99757.28;;;-1.67;80.46
77410;BME280;66481;51.332;22.804;2023-02-26T18:44:59;99764.19;;;-1.66;79.92
77410;BME280;66481;51.332;22.804;2023-02-26T18:49:02;99772.00;;;-1.67;78.47
77410;BME280;66481;51.332;22.804;2023-02-26T18:53:04;99787.56;;;-1.67;79.41
77410;BME280;66481;51.332;22.804;2023-02-26T18:57:08;99795.38;;;-1.69;79.65
77410;BME280;66481;51.332;22.804;2023-02-26T19:01:10;99785.03;;;-1.71;79.00
77410;BME280;66481;51.332;22.804;2023-02-26T19:05:13;99795.25;;;-1.63;78.42
77410;BME280;66481;51.332;22.804;2023-02-26T19:09:18;99800.41;;;-1.61;77.67
77410;BME280;66481;51.332;22.804;2023-02-26T19:13:20;99807.31;;;-1.60;78.65
77410;BME280;66481;51.332;22.804;2023-02-26T19:17:23;99803.97;;;-1.67;78.45
77410;BME280;66481;51.332;22.804;2023-02-26T19:21:25;99805.75;;;-1.69;79.76
77410;BME280;66481;51.332;22.804;2023-02-26T19:25:28;99808.34;;;-1.67;79.53
77410;BME280;66481;51.332;22.804;2023-02-26T19:29:32;99809.06;;;-1.61;78.52
77410;BME280;66481;51.332;22.804;2023-02-26T19:33:37;99814.16;;;-1.58;78.04
77410;BME280;66481;51.332;22.804;2023-02-26T19:37:39;99820.34;;;-1.63;78.03
77410;BME280;66481;51.332;22.804;2023-02-26T19:41:41;99821.06;;;-1.57;78.08
77410;BME280;66481;51.332;22.804;2023-02-26T19:45:43;99821.94;;;-1.58;78.62
77410;BME280;66481;51.332;22.804;2023-02-26T19:49:46;99825.41;;;-1.57;78.10
77410;BME280;66481;51.332;22.804;2023-02-26T19:53:49;99831.44;;;-1.57;78.20
77410;BME280;66481;51.332;22.804;2023-02-26T19:57:51;99837.50;;;-1.58;79.33
77410;BME280;66481;51.332;22.804;2023-02-26T20:01:54;99836.63;;;-1.57;79.01
77410;BME280;66481;51.332;22.804;2023-02-26T20:05:57;99841.91;;;-1.61;78.24
77410;BME280;66481;51.332;22.804;2023-02-26T20:10:00;99842.00;;;-1.64;76.71
77410;BME280;66481;51.332;22.804;2023-02-26T20:14:03;99848.19;;;-1.72;73.37
77410;BME280;66481;51.332;22.804;2023-02-26T20:18:06;99856.88;;;-1.74;72.28
77410;BME280;66481;51.332;22.804;2023-02-26T20:22:08;99861.22;;;-1.75;71.68
77410;BME280;66481;51.332;22.804;2023-02-26T20:26:14;99881.09;;;-1.75;73.18
77410;BME280;66481;51.332;22.804;2023-02-26T20:30:17;99862.97;;;-1.77;73.57
77410;BME280;66481;51.332;22.804;2023-02-26T20:34:20;99870.84;;;-1.80;71.43
77410;BME280;66481;51.332;22.804;2023-02-26T20:38:23;99873.53;;;-1.84;71.51
77410;BME280;66481;51.332;22.804;2023-02-26T20:42:25;99882.97;;;-1.82;70.29
77410;BME280;66481;51.332;22.804;2023-02-26T20:46:28;99883.84;;;-1.81;67.96
77410;BME280;66481;51.332;22.804;2023-02-26T20:50:33;99886.53;;;-1.86;68.07
77410;BME280;66481;51.332;22.804;2023-02-26T20:54:36;99889.09;;;-1.84;65.63
77410;BME280;66481;51.332;22.804;2023-02-26T21:04:06;99892.56;;;-1.87;66.57
77410;BME280;66481;51.332;22.804;2023-02-26T21:08:08;99890.84;;;-1.86;66.14
77410;BME280;66481;51.332;22.804;2023-02-26T21:12:11;99901.28;;;-1.90;67.17
77410;BME280;66481;51.332;22.804;2023-02-26T21:16:12;99907.31;;;-1.89;66.34
77410;BME280;66481;51.332;22.804;2023-02-26T21:20:14;99925.41;;;-1.84;66.78
77410;BME280;66481;51.332;22.804;2023-02-26T21:24:19;99925.53;;;-1.92;68.43
77410;BME280;66481;51.332;22.804;2023-02-26T21:28:21;99929.00;;;-1.92;68.38
77410;BME280;66481;51.332;22.804;2023-02-26T21:32:22;99928.19;;;-1.95;66.95
77410;BME280;66481;51.332;22.804;2023-02-26T21:36:24;99929.00;;;-1.92;68.06
77410;BME280;66481;51.332;22.804;2023-02-26T21:40:25;99941.16;;;-1.94;68.18
77410;BME280;66481;51.332;22.804;2023-02-26T21:44:26;99949.03;;;-2.00;69.73
77410;BME280;66481;51.332;22.804;2023-02-26T21:48:28;99950.81;;;-2.03;69.07
77410;BME280;66481;51.332;22.804;2023-02-26T21:52:29;99950.06;;;-2.10;69.61
77410;BME280;66481;51.332;22.804;2023-02-26T21:56:30;99959.47;;;-2.04;68.98
77410;BME280;66481;51.332;22.804;2023-02-26T22:00:34;99964.75;;;-2.09;69.62
77410;BME280;66481;51.332;22.804;2023-02-26T22:04:35;99964.75;;;-2.09;69.88
77410;BME280;66481;51.332;22.804;2023-02-26T22:08:37;99967.31;;;-2.08;70.16
77410;BME280;66481;51.332;22.804;2023-02-26T22:12:38;99971.66;;;-2.10;69.31
77410;BME280;66481;51.332;22.804;2023-02-26T22:16:39;99977.75;;;-2.12;69.58
77410;BME280;66481;51.332;22.804;2023-02-26T22:20:40;99975.16;;;-2.11;70.58
77410;BME280;66481;51.332;22.804;2023-02-26T22:24:42;99975.22;;;-2.15;70.64
77410;BME280;66481;51.332;22.804;2023-02-26T22:28:44;99985.53;;;-2.11;69.88
77410;BME280;66481;51.332;22.804;2023-02-26T22:32:45;99982.16;;;-2.16;69.48
77410;BME280;66481;51.332;22.804;2023-02-26T22:36:47;99980.19;;;-2.04;70.92
77410;BME280;66481;51.332;22.804;2023-02-26T22:40:48;99980.97;;;-1.99;67.24
77410;BME280;66481;51.332;22.804;2023-02-26T22:44:50;99992.34;;;-2.06;69.07
77410;BME280;66481;51.332;22.804;2023-02-26T22:48:52;99986.28;;;-2.04;69.09
77410;BME280;66481;51.332;22.804;2023-02-26T22:52:53;99998.34;;;-2.04;69.18
77410;BME280;66481;51.332;22.804;2023-02-26T22:56:54;100001.94;;;-2.12;69.18
77410;BME280;66481;51.332;22.804;2023-02-26T23:00:59;100010.66;;;-2.16;70.04
77410;BME280;66481;51.332;22.804;2023-02-26T23:05:01;100014.09;;;-2.15;70.30
77410;BME280;66481;51.332;22.804;2023-02-26T23:09:04;100017.50;;;-2.13;70.58
77410;BME280;66481;51.332;22.804;2023-02-26T23:13:06;100017.50;;;-2.13;69.46
77410;BME280;66481;51.332;22.804;2023-02-26T23:17:08;100019.25;;;-2.12;69.84
77410;BME280;66481;51.332;22.804;2023-02-26T23:21:09;100028.75;;;-2.13;70.52
77410;BME280;66481;51.332;22.804;2023-02-26T23:25:11;100031.28;;;-2.10;70.16
77410;BME280;66481;51.332;22.804;2023-02-26T23:29:12;100036.38;;;-2.03;69.76
77410;BME280;66481;51.332;22.804;2023-02-26T23:33:13;100037.19;;;-2.01;69.92
77410;BME280;66481;51.332;22.804;2023-02-26T23:37:15;100047.47;;;-1.94;69.20
77410;BME280;66481;51.332;22.804;2023-02-26T23:41:16;100051.72;;;-1.91;66.01
77410;BME280;66481;51.332;22.804;2023-02-26T23:45:17;100047.53;;;-1.98;66.60
77410;BME280;66481;51.332;22.804;2023-02-26T23:49:19;100053.56;;;-1.98;67.62
77410;BME280;66481;51.332;22.804;2023-02-26T23:53:20;100063.97;;;-2.01;69.51
77410;BME280;66481;51.332;22.804;2023-02-26T23:57:21;100068.47;;;-2.11;70.11
